Strona główna
METAR-TAF:

METAR-TAF

Lotnisko :

Rugby, Dakota Północna, Stany Zjednoczone

Szerokość geograficzna: 48-23-25N, Długość geograficzna: 100-01-27W, wysokość: 472 m

Aktualna obserwacja pogody

Raport powstał 14 minut temu, godzina 08:55 UTC
Wiatr 4 kt od wschód
Temperatura 12°C
Wilgotność 100%
Ciśnienie 1020 hPa
Widzialność: 16.1 km
bezchmurnie

METAR: KRUG 210855Z AUTO 09004KT 10SM CLR 12/12 A3012 RMK AO2

czas: 04:09 (09:09 UTC)


TAF: brakujący

Obserwacja i prognoza pogody dla ponad 4000 lotnisk (raport METAR i TAF).

Dostępne stacje oznaczono żółtymi i czerwonymi punktami na mapie.

Najedź kursorem aby zobaczyć nazwę stacji.

Kliknij aby zobaczyć obserwacje i prognozy pogody.

Aby zmienić mapę: kliknij na zielony przycisk z czarnym krzyżykiem, aby powiększyć; na zielony przycisk z myślnikiem, aby pomniejszyć; na zielone strzałki, aby przejść do map sąsiednich.


METAR-TAF: